Time;durP1;ratioP1;P1;durP2;ratioP2;P2;SDS_P1;SDS_P2;PMS_P1;PMS_P2;Temp;Humidity;BMP_temperature;BMP_pressure;BME280_temperature;BME280_humidity;BME280_pressure;Samples;Min_cycle;Max_cycle;Signal;HPM_P1;HPM_P2
2021/08/25 00:01:43;;;;;;;6.25;5.32;;;20.60;99.90;;;;;;5056281;28;20025;-57
2021/08/25 00:04:10;;;;;;;6.43;5.60;;;20.60;99.90;;;;;;5056436;28;20139;-55
2021/08/25 00:06:36;;;;;;;9.00;5.40;;;20.50;99.90;;;;;;5056134;28;20029;-57
2021/08/25 00:09:03;;;;;;;8.10;5.28;;;20.40;99.90;;;;;;5037950;28;20545;-56
2021/08/25 00:11:28;;;;;;;6.75;5.25;;;20.20;99.90;;;;;;5056540;28;20404;-57
2021/08/25 00:13:54;;;;;;;7.38;5.85;;;20.00;99.90;;;;;;5055954;28;20040;-57
2021/08/25 00:16:20;;;;;;;7.75;5.88;;;20.10;99.90;;;;;;5054604;28;20436;-57
2021/08/25 00:18:45;;;;;;;8.05;5.90;;;20.20;99.90;;;;;;5056496;28;20075;-56
2021/08/25 00:21:12;;;;;;;7.45;5.43;;;20.10;99.90;;;;;;5037843;28;20037;-56
2021/08/25 00:23:37;;;;;;;7.13;5.50;;;20.10;99.90;;;;;;5056188;28;20052;-57
2021/08/25 00:26:03;;;;;;;10.32;5.90;;;20.10;99.90;;;;;;5056493;28;20021;-56
2021/08/25 00:28:29;;;;;;;8.55;6.20;;;20.10;99.90;;;;;;5056241;28;20040;-57
2021/08/25 00:30:55;;;;;;;10.10;6.63;;;20.10;99.90;;;;;;5056052;28;20025;-57
2021/08/25 00:33:20;;;;;;;13.93;11.20;;;20.20;99.90;;;;;;5056425;28;20025;-57
2021/08/25 00:35:46;;;;;;;18.13;15.48;;;20.20;99.90;;;;;;5055420;28;20028;-58
2021/08/25 00:38:12;;;;;;;19.90;17.52;;;20.30;99.90;;;;;;5036872;28;20433;-57
2021/08/25 00:40:38;;;;;;;16.40;14.63;;;20.30;99.90;;;;;;5056075;28;20376;-58
2021/08/25 00:43:09;;;;;;;12.88;11.48;;;20.30;99.90;;;;;;5056094;28;20100;-58
2021/08/25 00:45:41;;;;;;;10.90;9.50;;;20.20;99.90;;;;;;5055704;28;20048;-58
2021/08/25 00:48:09;;;;;;;11.45;8.85;;;20.30;99.90;;;;;;5055673;28;20028;-57
2021/08/25 00:50:35;;;;;;;9.00;6.50;;;20.20;99.90;;;;;;5055667;28;20029;-56
2021/08/25 00:53:03;;;;;;;8.63;6.85;;;20.20;99.90;;;;;;5055691;28;20028;-56
2021/08/25 00:55:38;;;;;;;7.45;6.13;;;20.10;99.90;;;;;;5054710;28;20036;-58
2021/08/25 00:58:08;;;;;;;9.02;6.75;;;20.10;99.90;;;;;;5055137;28;20124;-57
2021/08/25 01:00:37;;;;;;;7.13;6.18;;;20.10;99.90;;;;;;5054498;28;20380;-56
2021/08/25 01:03:19;;;;;;;6.90;5.63;;;20.00;99.90;;;;;;5055410;28;20468;-57
2021/08/25 01:05:45;;;;;;;;;;;19.90;99.90;;;;;;5054977;28;20120;-56
2021/08/25 01:08:12;;;;;;;6.53;5.30;;;19.90;99.90;;;;;;5055568;28;19950;-58
2021/08/25 01:10:38;;;;;;;7.60;5.72;;;20.00;99.90;;;;;;5054514;28;20040;-57
2021/08/25 01:13:07;;;;;;;7.40;5.97;;;20.00;99.90;;;;;;5055554;28;20452;-57
2021/08/25 01:15:37;;;;;;;7.90;6.03;;;20.00;99.90;;;;;;5053616;28;20033;-57
2021/08/25 01:18:14;;;;;;;6.32;5.68;;;20.10;99.90;;;;;;5055069;28;20369;-58
2021/08/25 01:20:42;;;;;;;6.72;5.80;;;20.20;99.90;;;;;;5054746;28;20111;-58
2021/08/25 01:23:09;;;;;;;7.43;5.90;;;20.20;99.90;;;;;;5047132;28;20036;-57
2021/08/25 01:25:38;;;;;;;9.85;6.40;;;20.20;99.90;;;;;;5054928;28;20039;-57
2021/08/25 01:28:06;;;;;;;8.05;5.97;;;20.20;99.90;;;;;;5053207;28;20079;-57
2021/08/25 01:30:37;;;;;;;9.32;7.20;;;20.20;99.90;;;;;;5012472;28;20041;-57
2021/08/25 01:33:03;;;;;;;7.82;6.80;;;20.30;99.90;;;;;;5012104;28;20038;-57
2021/08/25 01:35:41;;;;;;;6.43;5.68;;;20.30;99.90;;;;;;5012077;28;20533;-56
2021/08/25 01:38:20;;;;;;;9.20;6.65;;;20.30;99.90;;;;;;5011684;28;20038;-56
2021/08/25 01:40:46;;;;;;;7.43;6.03;;;20.20;99.90;;;;;;5011808;28;20514;-56
2021/08/25 01:43:12;;;;;;;8.48;6.45;;;20.20;99.90;;;;;;5012071;28;20025;-56
2021/08/25 01:45:37;;;;;;;8.45;6.30;;;20.20;99.90;;;;;;5012526;28;20042;-57
2021/08/25 01:48:04;;;;;;;7.65;5.95;;;20.20;99.90;;;;;;5011911;28;20458;-56
2021/08/25 01:50:29;;;;;;;7.65;6.00;;;20.20;99.90;;;;;;5011832;28;20504;-56
2021/08/25 01:52:58;;;;;;;8.40;6.50;;;20.20;99.90;;;;;;5011134;28;20034;-57
2021/08/25 01:55:26;;;;;;;7.75;5.65;;;20.20;99.90;;;;;;5011779;28;20041;-57
2021/08/25 01:57:52;;;;;;;9.13;5.88;;;20.20;99.90;;;;;;5011371;28;20497;-57
2021/08/25 02:00:17;;;;;;;7.80;5.60;;;20.20;99.90;;;;;;4995467;28;20038;-56
2021/08/25 02:02:44;;;;;;;6.93;5.45;;;20.10;99.90;;;;;;5015461;28;20038;-58
2021/08/25 02:05:09;;;;;;;7.22;5.68;;;20.10;99.90;;;;;;5053042;28;20056;-57
2021/08/25 02:07:35;;;;;;;8.05;6.15;;;20.10;99.90;;;;;;5035369;28;20036;-58
2021/08/25 02:10:01;;;;;;;7.55;5.55;;;20.10;99.90;;;;;;5053688;28;20033;-58
2021/08/25 02:12:27;;;;;;;7.78;5.13;;;20.10;99.90;;;;;;5053841;28;20171;-57
2021/08/25 02:14:52;;;;;;;7.68;5.43;;;20.10;99.90;;;;;;5052797;28;20082;-56
2021/08/25 02:17:18;;;;;;;7.30;5.45;;;20.00;99.90;;;;;;5052329;28;20031;-59
2021/08/25 02:19:44;;;;;;;7.25;5.63;;;19.90;99.90;;;;;;5053998;28;20103;-58
2021/08/25 02:22:09;;;;;;;9.25;5.35;;;19.80;99.90;;;;;;5034681;28;20432;-57
2021/08/25 02:24:35;;;;;;;7.07;5.20;;;19.80;99.90;;;;;;5053251;28;20059;-58
2021/08/25 02:27:01;;;;;;;6.25;4.88;;;19.70;99.90;;;;;;5044378;28;20047;-58
2021/08/25 02:29:27;;;;;;;7.30;5.70;;;19.70;99.90;;;;;;5035270;28;20039;-57
2021/08/25 02:31:52;;;;;;;7.53;5.90;;;19.70;99.90;;;;;;5053816;28;20036;-56
2021/08/25 02:34:18;;;;;;;5.93;4.93;;;19.60;99.90;;;;;;5053770;28;20411;-57
2021/08/25 02:36:44;;;;;;;9.10;6.20;;;19.60;99.90;;;;;;5035300;28;20428;-57
2021/08/25 02:39:10;;;;;;;7.00;6.30;;;19.50;99.90;;;;;;5053817;28;20028;-57
2021/08/25 02:41:36;;;;;;;6.57;5.80;;;19.50;99.90;;;;;;5053646;28;20431;-55
2021/08/25 02:44:02;;;;;;;7.47;5.72;;;19.50;99.90;;;;;;5053792;28;20040;-56
2021/08/25 02:46:27;;;;;;;7.53;6.15;;;19.30;99.90;;;;;;5053724;28;20056;-55
2021/08/25 02:48:54;;;;;;;8.02;6.22;;;;;;;;;;5052289;28;20036;-55
2021/08/25 02:51:19;;;;;;;7.63;6.80;;;19.30;99.90;;;;;;5052485;28;20114;-55
2021/08/25 02:53:45;;;;;;;6.95;6.25;;;19.40;99.90;;;;;;5017529;28;20212;-56
2021/08/25 02:56:11;;;;;;;8.75;6.57;;;;;;;;;;5052688;28;20056;-56
2021/08/25 02:58:38;;;;;;;8.63;6.63;;;;;;;;;;5052482;28;20099;-56
2021/08/25 03:01:04;;;;;;;8.60;6.53;;;;;;;;;;5052363;28;20488;-55
2021/08/25 03:03:30;;;;;;;10.38;6.85;;;;;;;;;;5053412;28;20060;-56
2021/08/25 03:05:56;;;;;;;7.65;6.35;;;;;;;;;;5053424;28;20031;-56
2021/08/25 03:08:22;;;;;;;8.80;5.93;;;;;;;;;;5053360;28;20533;-55
2021/08/25 03:10:48;;;;;;;6.68;5.97;;;;;;;;;;5053487;28;20079;-56
2021/08/25 03:13:14;;;;;;;11.27;7.07;;;;;;;;;;5034481;28;20044;-56
2021/08/25 03:15:43;;;;;;;9.70;6.80;;;;;;;;;;5053586;28;20100;-55
2021/08/25 03:18:09;;;;;;;9.15;6.78;;;;;;;;;;5053267;28;20021;-55
2021/08/25 03:20:35;;;;;;;9.27;6.20;;;;;;;;;;5053368;28;20029;-56
2021/08/25 03:23:01;;;;;;;8.27;6.57;;;;;;;;;;5051657;28;20037;-56
2021/08/25 03:25:27;;;;;;;8.73;6.97;;;;;;;;;;5052507;28;20021;-55
2021/08/25 03:27:53;;;;;;;10.65;7.13;;;;;;;;;;5056326;28;20021;-57
2021/08/25 03:30:20;;;;;;;7.32;6.25;;;;;;;;;;5056707;28;20039;-57
2021/08/25 03:32:46;;;;;;;8.63;6.57;;;;;;;;;;5056039;28;20029;-57
2021/08/25 03:35:12;;;;;;;9.40;7.50;;;;;;;;;;5056598;28;20585;-56
2021/08/25 03:37:38;;;;;;;8.57;7.20;;;;;;;;;;5055699;28;20028;-56
2021/08/25 03:40:06;;;;;;;8.88;6.68;;;;;;;;;;5037638;28;20090;-55
2021/08/25 03:42:32;;;;;;;8.10;6.70;;;;;;;;;;5056179;28;20488;-57
2021/08/25 03:44:58;;;;;;;8.25;6.90;;;;;;;;;;5056557;28;20040;-56
2021/08/25 03:47:24;;;;;;;9.98;7.22;;;;;;;;;;5037119;28;20044;-57
2021/08/25 03:49:50;;;;;;;6.53;5.53;;;;;;;;;;5055812;28;20029;-56
2021/08/25 03:52:16;;;;;;;9.63;7.22;;;;;;;;;;5056542;28;20061;-56
2021/08/25 03:54:42;;;;;;;7.45;6.45;;;;;;;;;;5038101;28;20059;-56
2021/08/25 03:57:09;;;;;;;7.43;6.72;;;;;;;;;;5056734;28;20028;-56
2021/08/25 03:59:35;;;;;;;8.35;6.75;;;;;;;;;;5038226;28;20503;-57
2021/08/25 04:02:01;;;;;;;11.30;6.78;;;;;;;;;;5042339;28;20052;-56
2021/08/25 04:04:27;;;;;;;9.60;6.88;;;;;;;;;;5054738;28;20048;-57
2021/08/25 04:06:53;;;;;;;6.72;6.05;;;;;;;;;;5056794;28;20024;-57
2021/08/25 04:09:19;;;;;;;8.98;6.38;;;;;;;;;;5056317;28;20056;-56
2021/08/25 04:11:45;;;;;;;8.77;6.60;;;;;;;;;;5056579;28;20029;-56
2021/08/25 04:14:11;;;;;;;8.18;6.43;;;;;;;;;;5056311;28;20037;-57
2021/08/25 04:16:37;;;;;;;7.15;6.18;;;;;;;;;;5056534;28;20100;-58
2021/08/25 04:19:03;;;;;;;7.78;6.80;;;19.10;99.90;;;;;;5056136;28;20104;-57
2021/08/25 04:21:29;;;;;;;8.82;6.35;;;19.20;99.90;;;;;;5056366;28;20496;-57
2021/08/25 04:23:55;;;;;;;8.50;6.50;;;19.10;99.90;;;;;;5056244;28;20021;-58
2021/08/25 04:26:21;;;;;;;10.38;6.28;;;19.30;99.90;;;;;;5055720;28;20031;-56
2021/08/25 04:28:46;;;;;;;8.25;6.35;;;19.30;99.90;;;;;;5055585;28;20029;-56
2021/08/25 04:31:12;;;;;;;9.38;6.78;;;;;;;;;;5055565;28;20528;-57
2021/08/25 04:33:39;;;;;;;9.20;6.50;;;;;;;;;;5055384;28;20029;-56
2021/08/25 04:36:05;;;;;;;9.45;6.97;;;;;;;;;;5055482;28;20056;-56
2021/08/25 04:38:31;;;;;;;8.57;5.43;;;;;;;;;;5054331;28;20476;-57
2021/08/25 04:40:58;;;;;;;7.20;5.88;;;;;;;;;;5055017;28;20465;-56
2021/08/25 04:43:25;;;;;;;7.65;5.93;;;;;;;;;;5034730;28;20133;-56
2021/08/25 04:45:51;;;;;;;6.72;5.65;;;;;;;;;;5054492;28;20074;-57
2021/08/25 04:48:17;;;;;;;7.10;6.00;;;;;;;;;;5054007;28;20032;-56
2021/08/25 04:50:44;;;;;;;7.05;5.93;;;;;;;;;;5054571;28;20034;-56
2021/08/25 04:53:10;;;;;;;7.20;6.43;;;;;;;;;;5055271;28;20032;-57
2021/08/25 04:55:36;;;;;;;6.88;6.18;;;;;;;;;;5054963;28;20412;-56
2021/08/25 04:58:03;;;;;;;11.52;6.63;;;;;;;;;;5055164;28;20103;-57
2021/08/25 05:00:29;;;;;;;8.18;6.50;;;;;;;;;;5055816;28;20029;-56
2021/08/25 05:02:55;;;;;;;8.88;6.78;;;18.70;99.90;;;;;;5055529;28;20029;-56
2021/08/25 05:05:21;;;;;;;8.10;6.80;;;18.70;99.90;;;;;;5036478;28;20045;-57
2021/08/25 05:07:47;;;;;;;10.00;7.43;;;18.80;99.90;;;;;;5055484;28;20043;-57
2021/08/25 05:10:12;;;;;;;11.05;7.70;;;18.80;99.90;;;;;;5055439;28;20537;-57
2021/08/25 05:12:38;;;;;;;8.85;7.90;;;18.90;99.90;;;;;;5055352;28;20029;-56
2021/08/25 05:15:06;;;;;;;8.60;7.75;;;18.90;99.90;;;;;;5055488;28;20087;-57
2021/08/25 05:17:32;;;;;;;10.43;8.23;;;18.90;99.90;;;;;;5055321;28;20031;-57
2021/08/25 05:20:06;;;;;;;8.60;7.80;;;19.00;99.90;;;;;;5055418;28;20024;-56
2021/08/25 05:22:33;;;;;;;11.40;8.65;;;18.90;99.90;;;;;;5055174;28;20413;-56
2021/08/25 05:24:59;;;;;;;10.98;8.60;;;18.90;99.90;;;;;;5051639;28;20392;-56
2021/08/25 05:27:25;;;;;;;8.57;7.32;;;18.70;99.90;;;;;;5054001;28;20033;-56
2021/08/25 05:29:51;;;;;;;10.15;8.20;;;18.70;99.90;;;;;;5054429;28;20387;-57
2021/08/25 05:32:17;;;;;;;13.63;8.48;;;18.90;99.90;;;;;;5054903;28;20072;-57
2021/08/25 05:34:43;;;;;;;11.25;8.38;;;19.00;99.90;;;;;;5053863;28;20116;-56
2021/08/25 05:37:09;;;;;;;13.88;10.30;;;19.00;99.90;;;;;;5035325;28;20049;-56
2021/08/25 05:39:35;;;;;;;16.55;11.50;;;18.90;99.90;;;;;;5054094;28;20036;-56
2021/08/25 05:42:01;;;;;;;19.08;12.70;;;19.00;99.90;;;;;;5035628;28;20037;-56
2021/08/25 05:44:26;;;;;;;16.50;12.10;;;19.00;99.90;;;;;;5035612;28;20408;-57
2021/08/25 05:46:52;;;;;;;19.85;13.32;;;19.00;99.90;;;;;;5053905;28;20132;-57
2021/08/25 05:49:18;;;;;;;23.27;15.43;;;19.00;99.90;;;;;;5046797;28;20116;-57
2021/08/25 05:51:44;;;;;;;30.45;18.17;;;19.00;99.90;;;;;;5051465;28;20399;-57
2021/08/25 05:54:10;;;;;;;33.20;20.00;;;18.90;99.90;;;;;;5022405;28;20485;-57
2021/08/25 05:56:35;;;;;;;10.00;8.55;;;18.60;99.90;;;;;;5044542;28;20028;-56
2021/08/25 05:59:01;;;;;;;8.77;7.88;;;18.60;99.90;;;;;;5044742;28;20028;-57
2021/08/25 06:01:27;;;;;;;11.10;8.15;;;18.50;99.90;;;;;;4993757;28;20033;-57
2021/08/25 06:03:53;;;;;;;7.93;6.75;;;18.50;99.90;;;;;;5043296;28;20045;-56
2021/08/25 06:06:19;;;;;;;8.15;7.30;;;18.40;99.90;;;;;;5017453;28;20078;-57
2021/08/25 06:08:44;;;;;;;9.73;7.95;;;18.30;99.90;;;;;;5046113;28;20028;-56
2021/08/25 06:11:10;;;;;;;7.10;6.40;;;18.30;99.90;;;;;;5054297;28;20139;-57
2021/08/25 06:13:36;;;;;;;10.95;7.60;;;;;;;;;;5041245;28;20116;-57
2021/08/25 06:16:02;;;;;;;7.93;6.75;;;17.90;99.90;;;;;;5047564;28;20025;-57
2021/08/25 06:18:28;;;;;;;7.43;6.25;;;18.10;99.90;;;;;;5054240;28;20036;-57
2021/08/25 06:20:55;;;;;;;6.00;5.32;;;17.90;99.90;;;;;;5046202;28;20044;-56
2021/08/25 06:23:21;;;;;;;7.13;5.35;;;;;;;;;;5046846;28;20025;-56
2021/08/25 06:25:49;;;;;;;6.32;5.72;;;;;;;;;;5054270;28;20082;-56
2021/08/25 06:28:15;;;;;;;6.32;4.97;;;;;;;;;;5051300;28;20035;-55
2021/08/25 06:30:42;;;;;;;7.03;5.50;;;;;;;;;;5053287;28;20399;-55
2021/08/25 06:33:08;;;;;;;4.68;3.70;;;;;;;;;;5052654;28;20029;-56
2021/08/25 06:35:34;;;;;;;5.30;4.43;;;17.10;99.90;;;;;;5052626;28;20094;-56
2021/08/25 06:37:59;;;;;;;5.18;4.68;;;17.60;99.90;;;;;;5052642;28;20036;-56
2021/08/25 06:40:25;;;;;;;6.45;5.00;;;17.70;99.90;;;;;;5052725;28;20495;-55
2021/08/25 06:42:51;;;;;;;5.00;4.38;;;17.90;99.90;;;;;;5023208;28;20053;-56
2021/08/25 06:45:17;;;;;;;5.85;5.20;;;17.90;99.90;;;;;;5051504;28;20041;-55
2021/08/25 06:47:42;;;;;;;7.43;5.05;;;17.70;99.90;;;;;;5053304;28;20032;-57
2021/08/25 06:50:08;;;;;;;6.07;4.15;;;17.70;99.90;;;;;;5033030;28;20507;-56
2021/08/25 06:52:34;;;;;;;5.22;4.25;;;17.50;99.90;;;;;;5034500;28;20040;-56
2021/08/25 06:55:00;;;;;;;5.65;4.00;;;17.30;99.90;;;;;;5040561;28;20041;-57
2021/08/25 06:57:26;;;;;;;4.88;3.60;;;17.20;99.90;;;;;;5051740;28;20043;-57
2021/08/25 06:59:51;;;;;;;7.80;3.97;;;17.10;99.90;;;;;;5052249;28;20028;-57
2021/08/25 07:02:17;;;;;;;5.25;3.28;;;17.10;99.90;;;;;;5052154;28;20032;-55
2021/08/25 07:04:46;;;;;;;4.68;3.60;;;17.00;99.90;;;;;;5052381;28;20057;-56
2021/08/25 07:07:15;;;;;;;4.63;2.85;;;16.90;99.90;;;;;;5051242;28;20087;-54
2021/08/25 07:09:41;;;;;;;3.75;2.70;;;16.90;99.90;;;;;;5052289;28;20119;-55
2021/08/25 07:12:08;;;;;;;3.42;3.03;;;16.90;99.90;;;;;;5052617;28;20039;-55
2021/08/25 07:14:33;;;;;;;5.25;3.03;;;16.90;99.90;;;;;;4977720;28;20136;-55
2021/08/25 07:16:59;;;;;;;3.55;2.85;;;16.90;99.90;;;;;;4976690;28;20508;-54
2021/08/25 07:19:25;;;;;;;4.80;2.65;;;16.80;99.90;;;;;;4991675;28;20045;-55
2021/08/25 07:21:51;;;;;;;3.85;2.63;;;16.80;99.90;;;;;;4971861;28;20050;-55
2021/08/25 07:24:16;;;;;;;3.78;2.75;;;16.80;99.90;;;;;;5004825;28;20057;-55
2021/08/25 07:26:42;;;;;;;6.57;3.17;;;16.70;99.90;;;;;;5004622;28;20026;-55
2021/08/25 07:29:08;;;;;;;3.78;2.70;;;16.90;99.90;;;;;;4987702;28;20038;-56
2021/08/25 07:31:34;;;;;;;5.72;3.20;;;16.80;99.90;;;;;;4985667;28;20487;-55
2021/08/25 07:34:00;;;;;;;3.42;2.85;;;16.90;99.90;;;;;;4974786;28;20054;-55
2021/08/25 07:36:26;;;;;;;3.05;2.67;;;16.90;99.90;;;;;;4983870;28;20386;-54
2021/08/25 07:38:52;;;;;;;3.55;2.75;;;17.00;99.90;;;;;;4979801;28;20038;-54
2021/08/25 07:41:18;;;;;;;5.35;3.67;;;17.10;99.90;;;;;;4986098;28;20049;-54
2021/08/25 07:43:44;;;;;;;3.83;2.80;;;17.00;99.90;;;;;;4975855;28;20047;-54
2021/08/25 07:46:11;;;;;;;3.92;3.13;;;16.90;99.90;;;;;;5016941;28;20100;-54
2021/08/25 07:48:37;;;;;;;3.47;2.88;;;17.00;99.90;;;;;;5027473;28;20092;-54
2021/08/25 07:51:08;;;;;;;4.07;3.17;;;16.90;99.90;;;;;;5027609;28;20038;-55
2021/08/25 07:53:35;;;;;;;3.30;3.00;;;17.00;99.90;;;;;;5030149;28;20052;-55
2021/08/25 07:56:01;;;;;;;5.32;2.90;;;17.00;99.90;;;;;;5030294;28;20021;-54
2021/08/25 07:58:27;;;;;;;3.33;3.03;;;17.10;99.90;;;;;;5030181;28;20376;-56
2021/08/25 08:00:53;;;;;;;4.93;3.50;;;17.10;99.90;;;;;;5032461;28;20048;-54
2021/08/25 08:03:18;;;;;;;4.82;3.40;;;17.20;99.90;;;;;;5036760;28;20025;-54
2021/08/25 08:05:44;;;;;;;4.70;3.33;;;17.10;99.90;;;;;;5042906;28;20472;-54
2021/08/25 08:08:10;;;;;;;4.60;3.45;;;17.20;99.90;;;;;;5032781;28;20026;-54
2021/08/25 08:10:36;;;;;;;4.25;3.58;;;17.10;99.90;;;;;;5014039;28;20042;-56
2021/08/25 08:13:02;;;;;;;5.10;3.47;;;17.20;99.90;;;;;;5033629;28;20052;-55
2021/08/25 08:15:30;;;;;;;5.90;4.55;;;17.10;99.90;;;;;;5035858;28;20048;-54
2021/08/25 08:17:56;;;;;;;7.35;3.88;;;17.10;99.90;;;;;;5036944;28;20041;-53
2021/08/25 08:20:22;;;;;;;5.07;3.40;;;17.10;99.90;;;;;;5020235;28;20043;-54
2021/08/25 08:22:48;;;;;;;4.57;3.38;;;17.10;99.90;;;;;;5055801;28;20499;-54
2021/08/25 08:25:14;;;;;;;5.50;3.75;;;17.00;99.90;;;;;;5055399;28;20033;-55
2021/08/25 08:27:41;;;;;;;5.55;4.20;;;17.10;99.90;;;;;;5054676;28;20031;-53
2021/08/25 08:30:07;;;;;;;5.82;3.90;;;17.20;99.90;;;;;;5055538;28;20107;-54
2021/08/25 08:32:34;;;;;;;5.25;3.75;;;17.20;99.90;;;;;;5056553;28;20112;-55
2021/08/25 08:35:00;;;;;;;4.95;3.97;;;17.30;99.90;;;;;;5056077;28;20068;-55
2021/08/25 08:37:25;;;;;;;5.75;3.92;;;17.50;99.90;;;;;;5055937;28;20052;-55
2021/08/25 08:39:51;;;;;;;4.53;4.13;;;17.60;99.90;;;;;;5004236;28;20029;-55
2021/08/25 08:42:31;;;;;;;5.07;3.72;;;17.70;99.90;;;;;;5037028;28;20037;-53
2021/08/25 08:44:58;;;;;;;4.88;4.03;;;17.90;99.90;;;;;;5055994;28;20059;-54
2021/08/25 08:47:26;;;;;;;5.25;3.88;;;17.90;99.90;;;;;;5049342;28;20088;-55
2021/08/25 08:49:53;;;;;;;5.35;4.05;;;17.90;99.90;;;;;;5046429;28;20063;-54
2021/08/25 08:52:20;;;;;;;4.97;4.47;;;17.80;99.90;;;;;;5036420;28;20112;-54
2021/08/25 08:54:47;;;;;;;4.53;4.13;;;17.90;99.90;;;;;;5038274;28;20036;-53
2021/08/25 08:57:13;;;;;;;5.70;4.50;;;17.90;99.90;;;;;;5016930;28;20064;-46
2021/08/25 08:59:39;;;;;;;8.05;5.70;;;18.00;99.90;;;;;;5044144;28;20474;-49
2021/08/25 09:02:05;;;;;;;5.35;3.90;;;18.00;99.90;;;;;;5019394;28;20064;-50
2021/08/25 09:04:35;;;;;;;5.80;4.22;;;17.90;99.90;;;;;;5035135;28;20049;-50
2021/08/25 09:07:03;;;;;;;5.70;4.60;;;18.00;99.90;;;;;;5050041;28;20037;-52
2021/08/25 09:09:55;;;;;;;4.75;4.35;;;18.00;99.90;;;;;;5006699;28;20037;-49
2021/08/25 09:12:22;;;;;;;4.38;3.97;;;18.00;99.90;;;;;;5013079;28;20117;-49
2021/08/25 09:14:48;;;;;;;5.80;5.18;;;17.80;99.90;;;;;;5016980;28;20639;-49
2021/08/25 09:17:26;;;;;;;5.93;5.32;;;17.70;99.90;;;;;;5029473;28;20034;-48
2021/08/25 09:20:07;;;;;;;5.63;4.95;;;17.80;99.90;;;;;;5025519;28;20033;-48
2021/08/25 09:22:34;;;;;;;5.88;4.85;;;17.70;99.90;;;;;;5025425;28;20041;-48
2021/08/25 09:24:59;;;;;;;6.57;5.53;;;17.60;99.90;;;;;;4978570;28;20461;-48
2021/08/25 09:27:25;;;;;;;6.93;5.38;;;17.70;99.90;;;;;;5011865;28;20080;-48
2021/08/25 09:30:04;;;;;;;7.28;5.68;;;17.60;99.90;;;;;;5011619;28;20032;-48
2021/08/25 09:32:32;;;;;;;5.53;5.03;;;17.60;99.90;;;;;;5010913;28;20122;-53
2021/08/25 09:35:02;;;;;;;7.57;5.47;;;17.40;99.90;;;;;;5011400;28;20072;-51
2021/08/25 09:37:32;;;;;;;7.47;6.32;;;17.40;99.90;;;;;;5021273;28;20083;-54
2021/08/25 09:40:01;;;;;;;6.70;6.10;;;17.40;99.90;;;;;;5011300;28;20532;-53
2021/08/25 09:42:43;;;;;;;6.03;4.85;;;17.50;99.90;;;;;;5014006;28;20048;-52
2021/08/25 09:45:13;;;;;;;6.10;5.50;;;17.30;99.90;;;;;;5037341;28;20029;-54
2021/08/25 09:47:49;;;;;;;6.47;5.72;;;17.30;99.90;;;;;;5050313;28;20033;-52
2021/08/25 09:50:20;;;;;;;5.13;4.63;;;17.40;99.90;;;;;;5045817;28;20044;-50
2021/08/25 09:52:47;;;;;;;5.18;4.60;;;17.30;99.90;;;;;;5033271;28;20033;-54
2021/08/25 09:55:14;;;;;;;6.38;4.78;;;17.10;99.90;;;;;;5033587;28;20053;-51
2021/08/25 09:57:44;;;;;;;5.15;4.65;;;16.90;99.90;;;;;;5045813;28;20408;-52
2021/08/25 10:00:12;;;;;;;4.72;4.20;;;16.90;99.90;;;;;;5016926;28;20045;-54
2021/08/25 10:02:39;;;;;;;5.53;4.35;;;16.90;99.90;;;;;;4956882;28;20042;-50
2021/08/25 10:05:05;;;;;;;4.35;3.95;;;16.90;99.90;;;;;;5051876;28;20037;-49
2021/08/25 10:07:32;;;;;;;4.45;4.05;;;17.20;99.90;;;;;;5052395;28;20025;-50
2021/08/25 10:09:58;;;;;;;4.63;3.97;;;17.30;99.90;;;;;;5052180;28;20111;-48
2021/08/25 10:12:24;;;;;;;5.20;4.70;;;17.30;99.90;;;;;;5051981;28;20021;-48
2021/08/25 10:14:50;;;;;;;4.93;3.92;;;17.40;99.90;;;;;;5051417;28;20043;-52
2021/08/25 10:17:40;;;;;;;3.92;3.42;;;17.40;99.90;;;;;;5052207;28;20098;-53
2021/08/25 10:20:35;;;;;;;4.85;3.58;;;17.20;99.90;;;;;;5040522;28;20037;-51
2021/08/25 10:23:02;;;;;;;4.35;3.50;;;17.30;99.90;;;;;;4960650;28;20226;-53
2021/08/25 10:25:28;;;;;;;4.13;3.72;;;17.40;99.90;;;;;;4963338;28;20037;-52
2021/08/25 10:28:08;;;;;;;4.47;3.78;;;17.40;99.90;;;;;;4918855;29;20061;-52
2021/08/25 10:30:46;;;;;;;4.72;3.63;;;17.30;99.90;;;;;;4917564;29;20063;-51
2021/08/25 10:33:15;;;;;;;3.55;3.08;;;17.20;99.90;;;;;;4920491;29;20135;-54
2021/08/25 10:35:45;;;;;;;4.13;3.20;;;17.30;99.90;;;;;;4921920;29;20554;-53
2021/08/25 10:38:29;;;;;;;5.00;3.45;;;17.30;99.90;;;;;;4907742;29;20079;-51
2021/08/25 10:41:06;;;;;;;3.95;3.25;;;17.20;99.90;;;;;;4895486;29;20141;-54
2021/08/25 10:43:43;;;;;;;3.20;2.90;;;17.30;99.90;;;;;;4913039;29;20059;-50
2021/08/25 10:46:14;;;;;;;3.88;3.00;;;17.40;99.90;;;;;;4909670;29;20049;-54
2021/08/25 10:48:50;;;;;;;3.83;3.08;;;17.60;99.90;;;;;;4903953;29;20080;-53
2021/08/25 10:51:28;;;;;;;3.42;3.13;;;17.70;99.90;;;;;;4912532;29;20043;-54
2021/08/25 10:53:54;;;;;;;3.20;2.90;;;17.90;99.90;;;;;;4912485;29;20592;-52
2021/08/25 10:56:41;;;;;;;2.97;2.67;;;17.80;99.90;;;;;;4876471;29;20119;-54
2021/08/25 10:59:11;;;;;;;2.60;2.40;;;17.60;99.90;;;;;;4935575;28;20485;-50
2021/08/25 11:01:38;;;;;;;3.15;2.85;;;17.50;99.90;;;;;;5011945;28;20041;-51
2021/08/25 11:04:24;;;;;;;2.90;2.60;;;17.60;99.90;;;;;;5029090;28;20061;-54
2021/08/25 11:07:05;;;;;;;4.55;3.15;;;17.50;99.90;;;;;;4976772;28;20390;-55
2021/08/25 11:09:33;;;;;;;3.00;2.55;;;17.30;99.90;;;;;;5041953;28;20036;-50
2021/08/25 11:11:59;;;;;;;2.78;2.53;;;17.50;99.90;;;;;;5050888;28;20033;-58
2021/08/25 11:14:48;;;;;;;3.20;2.40;;;17.60;99.90;;;;;;5016924;28;20040;-55
2021/08/25 11:17:30;;;;;;;3.78;2.17;;;17.70;99.90;;;;;;4965193;28;20041;-54
2021/08/25 11:20:05;;;;;;;3.58;2.60;;;17.60;99.90;;;;;;5029702;28;20393;-56
2021/08/25 11:22:47;;;;;;;2.63;2.40;;;17.50;99.90;;;;;;5043530;28;20032;-55
2021/08/25 11:25:17;;;;;;;4.28;2.72;;;17.40;99.90;;;;;;5046984;28;20036;-55
2021/08/25 11:27:45;;;;;;;3.35;2.50;;;17.40;99.90;;;;;;5049333;28;20032;-54
2021/08/25 11:30:18;;;;;;;2.92;2.63;;;17.40;99.90;;;;;;5052172;28;20021;-53
2021/08/25 11:33:07;;;;;;;3.20;2.60;;;17.50;99.90;;;;;;5052006;28;20035;-54
2021/08/25 11:35:44;;;;;;;2.88;2.55;;;17.60;99.90;;;;;;5052536;28;20049;-52
2021/08/25 11:38:18;;;;;;;2.50;2.30;;;17.70;99.90;;;;;;5041936;28;20025;-51
2021/08/25 11:40:48;;;;;;;2.97;2.65;;;17.50;99.90;;;;;;5051958;28;20025;-55
2021/08/25 11:43:22;;;;;;;3.20;2.67;;;17.50;99.90;;;;;;5010445;28;20129;-54
2021/08/25 11:45:55;;;;;;;4.65;2.78;;;17.50;99.90;;;;;;4977538;28;20509;-51
2021/08/25 11:48:28;;;;;;;3.30;3.00;;;17.50;99.90;;;;;;5013466;28;20038;-55
2021/08/25 11:50:54;;;;;;;3.45;2.28;;;17.50;99.90;;;;;;4980935;28;20109;-50
2021/08/25 11:53:22;;;;;;;3.35;2.45;;;17.50;99.90;;;;;;5014250;28;20033;-53
2021/08/25 11:55:52;;;;;;;3.95;2.58;;;17.70;99.90;;;;;;5013186;28;20470;-53
2021/08/25 11:58:24;;;;;;;3.05;2.63;;;17.60;99.90;;;;;;5000723;28;20046;-52
2021/08/25 12:00:50;;;;;;;3.47;3.13;;;17.50;99.90;;;;;;5013402;28;20048;-53
2021/08/25 12:03:16;;;;;;;2.90;2.60;;;17.60;99.90;;;;;;5013469;28;20042;-54
2021/08/25 12:05:55;;;;;;;4.95;3.45;;;17.40;99.90;;;;;;4997033;28;20041;-51
2021/08/25 12:08:21;;;;;;;5.85;3.33;;;17.30;99.90;;;;;;5014020;28;20069;-49
2021/08/25 12:11:01;;;;;;;5.70;3.97;;;17.40;99.90;;;;;;5013936;28;20057;-55
2021/08/25 12:13:36;;;;;;;4.10;2.63;;;17.60;99.90;;;;;;5022301;28;20041;-52
2021/08/25 12:16:06;;;;;;;3.47;2.78;;;17.70;99.90;;;;;;5056123;28;20086;-51
2021/08/25 12:18:53;;;;;;;3.78;3.35;;;17.50;99.90;;;;;;5021525;28;20044;-55
2021/08/25 12:21:20;;;;;;;4.72;3.70;;;17.70;99.90;;;;;;5021090;28;20187;-53
2021/08/25 12:24:11;;;;;;;4.00;3.60;;;17.60;99.90;;;;;;5056336;28;20415;-48
2021/08/25 12:26:52;;;;;;;5.20;3.67;;;17.70;99.90;;;;;;5056152;28;20457;-55
2021/08/25 12:29:31;;;;;;;5.60;3.50;;;17.80;99.90;;;;;;5056179;28;20030;-51
2021/08/25 12:31:58;;;;;;;6.88;3.72;;;17.70;99.90;;;;;;5055931;28;20052;-51
2021/08/25 12:34:24;;;;;;;5.20;4.03;;;18.10;99.90;;;;;;5054199;28;20048;-56
2021/08/25 12:36:56;;;;;;;4.57;3.92;;;18.10;99.90;;;;;;5036097;28;20488;-51
2021/08/25 12:39:27;;;;;;;4.68;3.75;;;18.10;99.90;;;;;;5055907;28;20104;-54
2021/08/25 12:41:54;;;;;;;4.70;4.03;;;17.90;99.90;;;;;;5055048;28;20033;-51
2021/08/25 12:44:20;;;;;;;5.13;4.10;;;17.80;99.90;;;;;;5019621;28;20044;-51
2021/08/25 12:46:56;;;;;;;4.90;4.07;;;17.60;99.90;;;;;;5026104;28;20033;-51
2021/08/25 12:49:27;;;;;;;4.88;4.25;;;17.60;99.90;;;;;;5042148;28;20056;-47
2021/08/25 12:51:55;;;;;;;5.38;3.78;;;17.50;99.90;;;;;;5034510;28;20037;-52
2021/08/25 12:54:22;;;;;;;4.15;3.75;;;17.50;99.90;;;;;;5034377;28;20049;-52
2021/08/25 12:56:48;;;;;;;7.25;4.15;;;17.50;99.90;;;;;;5034270;28;20500;-51
2021/08/25 12:59:13;;;;;;;5.63;4.15;;;17.40;99.90;;;;;;5033488;28;20033;-52
2021/08/25 13:01:40;;;;;;;6.18;4.72;;;17.30;99.90;;;;;;5034409;28;20037;-54
2021/08/25 13:04:06;;;;;;;7.20;4.35;;;17.30;99.90;;;;;;5034013;28;20057;-48
2021/08/25 13:06:32;;;;;;;4.70;3.63;;;17.40;99.90;;;;;;5034416;28;20033;-55
2021/08/25 13:08:57;;;;;;;6.88;4.57;;;17.50;99.90;;;;;;5015324;28;20042;-53